sensor_id;sensor_type;location;lat;lon;timestamp;temperature;humidity
34008;DHT22;41085;51.594;7.138;2022-11-20T00:00:42;16.30;89.90
34008;DHT22;41085;51.594;7.138;2022-11-20T00:04:43;16.70;90.10
34008;DHT22;41085;51.594;7.138;2022-11-20T00:08:44;19.00;90.90
34008;DHT22;41085;51.594;7.138;2022-11-20T00:12:45;17.30;90.50
34008;DHT22;41085;51.594;7.138;2022-11-20T00:16:45;18.20;90.90
34008;DHT22;41085;51.594;7.138;2022-11-20T00:20:46;17.10;90.60
34008;DHT22;41085;51.594;7.138;2022-11-20T00:24:47;17.30;90.70
34008;DHT22;41085;51.594;7.138;2022-11-20T00:28:58;17.70;90.90
34008;DHT22;41085;51.594;7.138;2022-11-20T00:32:59;16.50;90.60
34008;DHT22;41085;51.594;7.138;2022-11-20T00:36:59;17.50;91.00
34008;DHT22;41085;51.594;7.138;2022-11-20T00:41:03;17.30;91.00
34008;DHT22;41085;51.594;7.138;2022-11-20T00:45:04;16.60;90.80
34008;DHT22;41085;51.594;7.138;2022-11-20T00:49:05;16.50;91.00
34008;DHT22;41085;51.594;7.138;2022-11-20T00:53:05;16.60;91.10
34008;DHT22;41085;51.594;7.138;2022-11-20T00:57:06;18.00;91.60
34008;DHT22;41085;51.594;7.138;2022-11-20T01:05:08;16.30;91.10
34008;DHT22;41085;51.594;7.138;2022-11-20T01:09:11;16.50;91.30
34008;DHT22;41085;51.594;7.138;2022-11-20T01:13:12;17.70;91.70
34008;DHT22;41085;51.594;7.138;2022-11-20T01:17:31;17.50;91.60
34008;DHT22;41085;51.594;7.138;2022-11-20T01:21:35;16.40;91.40
34008;DHT22;41085;51.594;7.138;2022-11-20T01:25:35;16.80;91.50
34008;DHT22;41085;51.594;7.138;2022-11-20T01:29:36;16.30;91.50
34008;DHT22;41085;51.594;7.138;2022-11-20T01:33:36;17.50;91.90
34008;DHT22;41085;51.594;7.138;2022-11-20T01:37:37;16.40;91.60
34008;DHT22;41085;51.594;7.138;2022-11-20T01:41:38;17.50;91.90
34008;DHT22;41085;51.594;7.138;2022-11-20T01:50:24;16.60;91.70
34008;DHT22;41085;51.594;7.138;2022-11-20T01:54:43;16.50;91.70
34008;DHT22;41085;51.594;7.138;2022-11-20T01:58:52;16.30;91.70
34008;DHT22;41085;51.594;7.138;2022-11-20T02:02:57;16.20;91.70
34008;DHT22;41085;51.594;7.138;2022-11-20T02:07:03;17.80;92.20
34008;DHT22;41085;51.594;7.138;2022-11-20T02:11:05;17.50;92.20
34008;DHT22;41085;51.594;7.138;2022-11-20T02:15:06;16.60;92.10
34008;DHT22;41085;51.594;7.138;2022-11-20T02:19:12;16.50;92.10
34008;DHT22;41085;51.594;7.138;2022-11-20T02:27:32;16.70;92.10
34008;DHT22;41085;51.594;7.138;2022-11-20T02:31:41;16.60;92.20
34008;DHT22;41085;51.594;7.138;2022-11-20T02:35:45;16.50;92.20
34008;DHT22;41085;51.594;7.138;2022-11-20T02:39:50;16.20;92.10
34008;DHT22;41085;51.594;7.138;2022-11-20T02:43:51;17.40;92.50
34008;DHT22;41085;51.594;7.138;2022-11-20T02:47:52;17.10;92.50
34008;DHT22;41085;51.594;7.138;2022-11-20T02:51:53;17.10;92.50
34008;DHT22;41085;51.594;7.138;2022-11-20T02:55:53;18.00;92.80
34008;DHT22;41085;51.594;7.138;2022-11-20T02:59:54;16.80;92.60
34008;DHT22;41085;51.594;7.138;2022-11-20T03:03:55;16.50;92.50
34008;DHT22;41085;51.594;7.138;2022-11-20T03:07:56;18.40;93.00
34008;DHT22;41085;51.594;7.138;2022-11-20T03:11:56;17.70;92.90
34008;DHT22;41085;51.594;7.138;2022-11-20T03:15:57;17.00;92.70
34008;DHT22;41085;51.594;7.138;2022-11-20T03:19:58;17.90;93.00
34008;DHT22;41085;51.594;7.138;2022-11-20T03:23:58;16.50;92.60
34008;DHT22;41085;51.594;7.138;2022-11-20T03:27:59;18.60;93.20
34008;DHT22;41085;51.594;7.138;2022-11-20T03:31:59;16.90;92.80
34008;DHT22;41085;51.594;7.138;2022-11-20T03:36:05;16.40;92.60
34008;DHT22;41085;51.594;7.138;2022-11-20T03:40:07;16.60;92.60
34008;DHT22;41085;51.594;7.138;2022-11-20T03:44:10;16.60;92.70
34008;DHT22;41085;51.594;7.138;2022-11-20T03:48:11;16.70;92.70
34008;DHT22;41085;51.594;7.138;2022-11-20T03:52:11;17.50;93.00
34008;DHT22;41085;51.594;7.138;2022-11-20T03:56:14;16.50;92.60
34008;DHT22;41085;51.594;7.138;2022-11-20T04:00:15;17.40;92.50
34008;DHT22;41085;51.594;7.138;2022-11-20T04:04:15;16.70;92.20
34008;DHT22;41085;51.594;7.138;2022-11-20T04:08:16;16.60;92.00
34008;DHT22;41085;51.594;7.138;2022-11-20T04:12:16;16.80;92.00
34008;DHT22;41085;51.594;7.138;2022-11-20T04:16:18;16.90;92.30
34008;DHT22;41085;51.594;7.138;2022-11-20T04:20:19;16.80;91.80
34008;DHT22;41085;51.594;7.138;2022-11-20T04:24:20;18.00;92.20
34008;DHT22;41085;51.594;7.138;2022-11-20T04:28:20;17.20;92.00
34008;DHT22;41085;51.594;7.138;2022-11-20T04:32:21;17.20;92.00
34008;DHT22;41085;51.594;7.138;2022-11-20T04:36:23;17.20;91.90
34008;DHT22;41085;51.594;7.138;2022-11-20T04:40:24;16.60;91.60
34008;DHT22;41085;51.594;7.138;2022-11-20T04:44:25;16.80;91.70
34008;DHT22;41085;51.594;7.138;2022-11-20T04:48:26;17.30;91.90
34008;DHT22;41085;51.594;7.138;2022-11-20T04:52:27;17.20;92.20
34008;DHT22;41085;51.594;7.138;2022-11-20T04:56:27;17.00;92.00
34008;DHT22;41085;51.594;7.138;2022-11-20T05:00:28;17.20;92.20
34008;DHT22;41085;51.594;7.138;2022-11-20T05:04:29;17.60;92.00
34008;DHT22;41085;51.594;7.138;2022-11-20T05:08:30;17.30;91.80
34008;DHT22;41085;51.594;7.138;2022-11-20T05:12:31;18.10;92.10
34008;DHT22;41085;51.594;7.138;2022-11-20T05:16:34;17.00;91.70
34008;DHT22;41085;51.594;7.138;2022-11-20T05:20:36;17.60;91.70
34008;DHT22;41085;51.594;7.138;2022-11-20T05:24:36;18.00;91.80
34008;DHT22;41085;51.594;7.138;2022-11-20T05:28:37;17.20;91.60
34008;DHT22;41085;51.594;7.138;2022-11-20T05:32:37;18.70;92.00
34008;DHT22;41085;51.594;7.138;2022-11-20T05:36:38;18.70;91.90
34008;DHT22;41085;51.594;7.138;2022-11-20T05:40:38;17.20;91.40
34008;DHT22;41085;51.594;7.138;2022-11-20T05:44:39;17.90;91.50
34008;DHT22;41085;51.594;7.138;2022-11-20T05:48:41;17.30;91.30
34008;DHT22;41085;51.594;7.138;2022-11-20T05:52:42;17.70;91.20
34008;DHT22;41085;51.594;7.138;2022-11-20T05:56:42;17.20;91.10
34008;DHT22;41085;51.594;7.138;2022-11-20T06:00:43;17.90;91.20
34008;DHT22;41085;51.594;7.138;2022-11-20T06:04:44;17.90;91.20
34008;DHT22;41085;51.594;7.138;2022-11-20T06:08:44;19.10;91.50
34008;DHT22;41085;51.594;7.138;2022-11-20T06:12:45;17.50;91.00
34008;DHT22;41085;51.594;7.138;2022-11-20T06:16:45;17.10;90.90
34008;DHT22;41085;51.594;7.138;2022-11-20T06:20:46;17.10;90.80
34008;DHT22;41085;51.594;7.138;2022-11-20T06:24:47;18.40;91.20
34008;DHT22;41085;51.594;7.138;2022-11-20T06:28:48;16.90;90.70
34008;DHT22;41085;51.594;7.138;2022-11-20T06:32:48;18.70;91.50
34008;DHT22;41085;51.594;7.138;2022-11-20T06:36:49;17.80;90.90
34008;DHT22;41085;51.594;7.138;2022-11-20T06:40:49;17.20;90.70
34008;DHT22;41085;51.594;7.138;2022-11-20T06:44:50;17.40;83.90
34008;DHT22;41085;51.594;7.138;2022-11-20T06:48:51;16.70;68.40
34008;DHT22;41085;51.594;7.138;2022-11-20T06:52:51;15.60;78.20
34008;DHT22;41085;51.594;7.138;2022-11-20T06:56:52;16.70;81.40
34008;DHT22;41085;51.594;7.138;2022-11-20T07:00:52;15.70;81.70
34008;DHT22;41085;51.594;7.138;2022-11-20T07:04:53;16.30;82.90
34008;DHT22;41085;51.594;7.138;2022-11-20T07:08:53;16.70;83.70
34008;DHT22;41085;51.594;7.138;2022-11-20T07:12:54;17.10;84.60
34008;DHT22;41085;51.594;7.138;2022-11-20T07:16:55;16.80;85.70
34008;DHT22;41085;51.594;7.138;2022-11-20T07:20:56;16.80;86.00
34008;DHT22;41085;51.594;7.138;2022-11-20T07:24:59;16.60;87.30
34008;DHT22;41085;51.594;7.138;2022-11-20T07:29:02;17.20;88.60
34008;DHT22;41085;51.594;7.138;2022-11-20T07:33:02;16.40;88.30
34008;DHT22;41085;51.594;7.138;2022-11-20T07:37:03;17.80;88.80
34008;DHT22;41085;51.594;7.138;2022-11-20T07:41:04;18.50;89.70
34008;DHT22;41085;51.594;7.138;2022-11-20T07:45:05;16.40;90.30
34008;DHT22;41085;51.594;7.138;2022-11-20T07:49:05;16.50;90.60
34008;DHT22;41085;51.594;7.138;2022-11-20T07:53:06;17.40;91.10
34008;DHT22;41085;51.594;7.138;2022-11-20T07:57:07;18.90;91.80
34008;DHT22;41085;51.594;7.138;2022-11-20T08:01:08;16.00;91.10
34008;DHT22;41085;51.594;7.138;2022-11-20T08:05:09;16.80;91.40
34008;DHT22;41085;51.594;7.138;2022-11-20T08:09:10;16.10;91.30
34008;DHT22;41085;51.594;7.138;2022-11-20T08:13:11;16.50;91.70
34008;DHT22;41085;51.594;7.138;2022-11-20T08:17:30;17.00;91.70
34008;DHT22;41085;51.594;7.138;2022-11-20T08:21:31;16.90;91.80
34008;DHT22;41085;51.594;7.138;2022-11-20T08:25:33;17.20;91.90
34008;DHT22;41085;51.594;7.138;2022-11-20T08:29:34;16.50;91.80
34008;DHT22;41085;51.594;7.138;2022-11-20T08:33:34;17.00;92.00
34008;DHT22;41085;51.594;7.138;2022-11-20T08:37:35;16.80;92.10
34008;DHT22;41085;51.594;7.138;2022-11-20T08:41:37;17.20;92.30
34008;DHT22;41085;51.594;7.138;2022-11-20T08:45:38;17.10;92.30
34008;DHT22;41085;51.594;7.138;2022-11-20T08:49:38;16.70;92.30
34008;DHT22;41085;51.594;7.138;2022-11-20T08:53:40;16.50;92.30
34008;DHT22;41085;51.594;7.138;2022-11-20T08:57:40;17.70;92.60
34008;DHT22;41085;51.594;7.138;2022-11-20T09:01:41;16.20;92.30
34008;DHT22;41085;51.594;7.138;2022-11-20T09:05:41;17.80;92.80
34008;DHT22;41085;51.594;7.138;2022-11-20T09:09:43;16.50;92.60
34008;DHT22;41085;51.594;7.138;2022-11-20T09:13:43;17.80;92.90
34008;DHT22;41085;51.594;7.138;2022-11-20T09:17:54;16.40;92.60
34008;DHT22;41085;51.594;7.138;2022-11-20T09:21:55;16.20;92.50
34008;DHT22;41085;51.594;7.138;2022-11-20T09:25:55;16.10;92.60
34008;DHT22;41085;51.594;7.138;2022-11-20T09:29:59;16.30;92.80
34008;DHT22;41085;51.594;7.138;2022-11-20T09:34:00;16.00;92.80
34008;DHT22;41085;51.594;7.138;2022-11-20T09:38:05;15.90;92.80
34008;DHT22;41085;51.594;7.138;2022-11-20T09:46:49;16.30;92.80
34008;DHT22;41085;51.594;7.138;2022-11-20T09:55:22;16.50;93.00
34008;DHT22;41085;51.594;7.138;2022-11-20T10:04:20;16.60;93.10
34008;DHT22;41085;51.594;7.138;2022-11-20T10:17:02;16.40;93.10
34008;DHT22;41085;51.594;7.138;2022-11-20T10:25:45;16.30;93.10
34008;DHT22;41085;51.594;7.138;2022-11-20T10:38:42;16.50;93.50
34008;DHT22;41085;51.594;7.138;2022-11-20T10:42:45;16.40;93.40
34008;DHT22;41085;51.594;7.138;2022-11-20T10:47:20;16.30;93.50
34008;DHT22;41085;51.594;7.138;2022-11-20T10:51:54;16.50;93.50
34008;DHT22;41085;51.594;7.138;2022-11-20T10:56:00;16.30;93.50
34008;DHT22;41085;51.594;7.138;2022-11-20T11:00:11;16.80;93.80
34008;DHT22;41085;51.594;7.138;2022-11-20T11:04:37;16.40;93.60
34008;DHT22;41085;51.594;7.138;2022-11-20T11:08:41;16.60;92.80
34008;DHT22;41085;51.594;7.138;2022-11-20T11:12:47;14.90;75.70
34008;DHT22;41085;51.594;7.138;2022-11-20T11:16:51;13.90;77.30
34008;DHT22;41085;51.594;7.138;2022-11-20T11:20:53;13.50;77.50
34008;DHT22;41085;51.594;7.138;2022-11-20T11:24:54;13.50;77.80
34008;DHT22;41085;51.594;7.138;2022-11-20T11:28:56;14.40;86.40
34008;DHT22;41085;51.594;7.138;2022-11-20T11:33:10;16.70;88.20
34008;DHT22;41085;51.594;7.138;2022-11-20T11:37:20;15.00;87.30
34008;DHT22;41085;51.594;7.138;2022-11-20T11:41:33;14.80;87.30
34008;DHT22;41085;51.594;7.138;2022-11-20T11:45:37;15.30;87.50
34008;DHT22;41085;51.594;7.138;2022-11-20T11:49:37;15.30;88.00
34008;DHT22;41085;51.594;7.138;2022-11-20T11:53:41;15.40;88.40
34008;DHT22;41085;51.594;7.138;2022-11-20T11:58:09;16.10;88.90
34008;DHT22;41085;51.594;7.138;2022-11-20T12:02:25;15.70;89.20
34008;DHT22;41085;51.594;7.138;2022-11-20T12:06:28;15.80;89.20
34008;DHT22;41085;51.594;7.138;2022-11-20T12:10:56;15.90;89.40
34008;DHT22;41085;51.594;7.138;2022-11-20T12:14:58;15.90;89.40
34008;DHT22;41085;51.594;7.138;2022-11-20T12:18:58;17.40;90.20
34008;DHT22;41085;51.594;7.138;2022-11-20T12:32:45;16.00;90.20
34008;DHT22;41085;51.594;7.138;2022-11-20T12:53:40;16.10;89.80
34008;DHT22;41085;51.594;7.138;2022-11-20T13:02:30;16.30;90.00
34008;DHT22;41085;51.594;7.138;2022-11-20T13:06:35;16.00;89.70
34008;DHT22;41085;51.594;7.138;2022-11-20T13:10:45;16.70;90.10
34008;DHT22;41085;51.594;7.138;2022-11-20T13:14:55;16.70;90.00
34008;DHT22;41085;51.594;7.138;2022-11-20T13:18:56;15.90;89.80
34008;DHT22;41085;51.594;7.138;2022-11-20T13:23:00;17.00;90.10
34008;DHT22;41085;51.594;7.138;2022-11-20T13:27:05;16.30;90.00
34008;DHT22;41085;51.594;7.138;2022-11-20T13:31:32;16.10;89.60
34008;DHT22;41085;51.594;7.138;2022-11-20T13:39:35;16.00;89.80
34008;DHT22;41085;51.594;7.138;2022-11-20T13:43:42;16.60;90.00
34008;DHT22;41085;51.594;7.138;2022-11-20T13:47:52;16.10;89.90
34008;DHT22;41085;51.594;7.138;2022-11-20T14:00:51;16.10;89.80
34008;DHT22;41085;51.594;7.138;2022-11-20T14:04:57;16.00;89.80
34008;DHT22;41085;51.594;7.138;2022-11-20T14:08:59;16.60;90.10
34008;DHT22;41085;51.594;7.138;2022-11-20T14:13:20;16.00;90.00
34008;DHT22;41085;51.594;7.138;2022-11-20T14:17:24;16.00;89.90
34008;DHT22;41085;51.594;7.138;2022-11-20T14:21:29;15.40;89.60
34008;DHT22;41085;51.594;7.138;2022-11-20T14:25:30;16.90;90.30
34008;DHT22;41085;51.594;7.138;2022-11-20T14:29:38;17.50;90.40
34008;DHT22;41085;51.594;7.138;2022-11-20T14:33:39;17.40;90.40
34008;DHT22;41085;51.594;7.138;2022-11-20T14:37:40;17.60;90.50
34008;DHT22;41085;51.594;7.138;2022-11-20T14:41:50;16.00;90.10
34008;DHT22;41085;51.594;7.138;2022-11-20T14:46:00;16.20;90.10
34008;DHT22;41085;51.594;7.138;2022-11-20T14:50:01;15.70;90.00
34008;DHT22;41085;51.594;7.138;2022-11-20T14:58:24;16.00;90.00
34008;DHT22;41085;51.594;7.138;2022-11-20T15:02:25;17.60;90.40
34008;DHT22;41085;51.594;7.138;2022-11-20T15:06:26;15.80;90.10
34008;DHT22;41085;51.594;7.138;2022-11-20T15:10:27;17.00;90.50
34008;DHT22;41085;51.594;7.138;2022-11-20T15:14:30;16.50;90.30
34008;DHT22;41085;51.594;7.138;2022-11-20T15:18:39;17.60;90.50
34008;DHT22;41085;51.594;7.138;2022-11-20T15:22:41;16.20;90.10
34008;DHT22;41085;51.594;7.138;2022-11-20T15:26:42;16.20;90.20
34008;DHT22;41085;51.594;7.138;2022-11-20T15:30:44;15.80;90.10
34008;DHT22;41085;51.594;7.138;2022-11-20T15:34:45;17.50;90.50
34008;DHT22;41085;51.594;7.138;2022-11-20T15:38:46;16.70;90.40
34008;DHT22;41085;51.594;7.138;2022-11-20T15:42:46;16.80;90.40
34008;DHT22;41085;51.594;7.138;2022-11-20T15:47:02;17.40;90.50
34008;DHT22;41085;51.594;7.138;2022-11-20T15:51:36;16.00;90.30
34008;DHT22;41085;51.594;7.138;2022-11-20T15:55:37;15.90;90.10
34008;DHT22;41085;51.594;7.138;2022-11-20T15:59:38;16.30;90.30
34008;DHT22;41085;51.594;7.138;2022-11-20T16:03:41;15.80;90.20
34008;DHT22;41085;51.594;7.138;2022-11-20T16:07:42;15.50;90.10
34008;DHT22;41085;51.594;7.138;2022-11-20T16:11:42;17.10;90.50
34008;DHT22;41085;51.594;7.138;2022-11-20T16:15:50;17.10;90.70
34008;DHT22;41085;51.594;7.138;2022-11-20T16:19:52;17.10;90.80
34008;DHT22;41085;51.594;7.138;2022-11-20T16:23:53;16.70;90.80
34008;DHT22;41085;51.594;7.138;2022-11-20T16:27:54;16.40;90.60
34008;DHT22;41085;51.594;7.138;2022-11-20T16:31:56;16.10;90.70
34008;DHT22;41085;51.594;7.138;2022-11-20T16:35:57;17.40;90.80
34008;DHT22;41085;51.594;7.138;2022-11-20T16:39:57;17.70;91.00
34008;DHT22;41085;51.594;7.138;2022-11-20T16:43:59;16.50;90.60
34008;DHT22;41085;51.594;7.138;2022-11-20T16:48:00;17.50;90.80
34008;DHT22;41085;51.594;7.138;2022-11-20T16:52:01;16.90;90.70
34008;DHT22;41085;51.594;7.138;2022-11-20T16:56:13;16.90;90.70
34008;DHT22;41085;51.594;7.138;2022-11-20T17:00:15;16.10;90.40
34008;DHT22;41085;51.594;7.138;2022-11-20T17:04:16;16.00;90.50
34008;DHT22;41085;51.594;7.138;2022-11-20T17:08:16;16.30;90.50
34008;DHT22;41085;51.594;7.138;2022-11-20T17:12:17;16.40;90.50
34008;DHT22;41085;51.594;7.138;2022-11-20T17:16:20;15.90;90.50
34008;DHT22;41085;51.594;7.138;2022-11-20T17:20:21;16.50;90.50
34008;DHT22;41085;51.594;7.138;2022-11-20T17:24:21;16.50;90.50
34008;DHT22;41085;51.594;7.138;2022-11-20T17:28:22;17.40;90.70
34008;DHT22;41085;51.594;7.138;2022-11-20T17:32:23;16.10;90.40
34008;DHT22;41085;51.594;7.138;2022-11-20T17:36:23;16.30;90.50
34008;DHT22;41085;51.594;7.138;2022-11-20T17:40:24;16.00;90.40
34008;DHT22;41085;51.594;7.138;2022-11-20T17:44:25;17.10;90.70
34008;DHT22;41085;51.594;7.138;2022-11-20T17:48:25;16.90;90.60
34008;DHT22;41085;51.594;7.138;2022-11-20T17:52:28;16.30;90.40
34008;DHT22;41085;51.594;7.138;2022-11-20T17:56:32;17.40;90.70
34008;DHT22;41085;51.594;7.138;2022-11-20T18:00:51;16.40;90.30
34008;DHT22;41085;51.594;7.138;2022-11-20T18:04:52;17.20;90.60
34008;DHT22;41085;51.594;7.138;2022-11-20T18:08:53;16.60;90.40
34008;DHT22;41085;51.594;7.138;2022-11-20T18:12:53;16.80;90.50
34008;DHT22;41085;51.594;7.138;2022-11-20T18:16:56;16.50;90.40
34008;DHT22;41085;51.594;7.138;2022-11-20T18:20:56;16.40;90.30
34008;DHT22;41085;51.594;7.138;2022-11-20T18:24:57;17.00;90.50
34008;DHT22;41085;51.594;7.138;2022-11-20T18:28:58;16.60;90.40
34008;DHT22;41085;51.594;7.138;2022-11-20T18:32:58;18.60;91.00
34008;DHT22;41085;51.594;7.138;2022-11-20T18:36:59;16.40;90.30
34008;DHT22;41085;51.594;7.138;2022-11-20T18:40:59;17.60;90.70
34008;DHT22;41085;51.594;7.138;2022-11-20T18:45:00;16.50;90.30
34008;DHT22;41085;51.594;7.138;2022-11-20T18:49:03;15.90;90.20
34008;DHT22;41085;51.594;7.138;2022-11-20T18:53:03;17.30;90.50
34008;DHT22;41085;51.594;7.138;2022-11-20T18:57:04;17.10;90.50
34008;DHT22;41085;51.594;7.138;2022-11-20T19:01:06;16.10;90.30
34008;DHT22;41085;51.594;7.138;2022-11-20T19:05:07;17.10;90.40
34008;DHT22;41085;51.594;7.138;2022-11-20T19:09:10;16.10;90.20
34008;DHT22;41085;51.594;7.138;2022-11-20T19:13:11;16.80;90.40
34008;DHT22;41085;51.594;7.138;2022-11-20T19:17:12;17.90;90.70
34008;DHT22;41085;51.594;7.138;2022-11-20T19:21:22;17.80;90.70
34008;DHT22;41085;51.594;7.138;2022-11-20T19:25:23;15.90;90.10
34008;DHT22;41085;51.594;7.138;2022-11-20T19:29:24;18.40;90.90
34008;DHT22;41085;51.594;7.138;2022-11-20T19:33:25;16.90;90.50
34008;DHT22;41085;51.594;7.138;2022-11-20T19:37:26;17.70;90.60
34008;DHT22;41085;51.594;7.138;2022-11-20T19:41:29;18.00;90.70
34008;DHT22;41085;51.594;7.138;2022-11-20T19:45:30;17.60;90.60
34008;DHT22;41085;51.594;7.138;2022-11-20T19:49:31;16.60;90.40
34008;DHT22;41085;51.594;7.138;2022-11-20T19:53:31;16.00;90.20
34008;DHT22;41085;51.594;7.138;2022-11-20T19:57:32;17.50;90.60
34008;DHT22;41085;51.594;7.138;2022-11-20T20:01:33;16.30;90.20
34008;DHT22;41085;51.594;7.138;2022-11-20T20:05:34;18.60;90.80
34008;DHT22;41085;51.594;7.138;2022-11-20T20:09:35;18.30;90.80
34008;DHT22;41085;51.594;7.138;2022-11-20T20:13:35;16.10;90.20
34008;DHT22;41085;51.594;7.138;2022-11-20T20:17:36;16.20;90.20
34008;DHT22;41085;51.594;7.138;2022-11-20T20:21:36;16.80;90.40
34008;DHT22;41085;51.594;7.138;2022-11-20T20:25:37;17.30;90.50
34008;DHT22;41085;51.594;7.138;2022-11-20T20:29:37;17.50;90.50
34008;DHT22;41085;51.594;7.138;2022-11-20T20:33:39;17.10;90.50
34008;DHT22;41085;51.594;7.138;2022-11-20T20:37:40;17.60;90.50
34008;DHT22;41085;51.594;7.138;2022-11-20T20:41:41;16.70;90.30
34008;DHT22;41085;51.594;7.138;2022-11-20T20:45:46;17.10;90.40
34008;DHT22;41085;51.594;7.138;2022-11-20T20:49:47;18.50;90.70
34008;DHT22;41085;51.594;7.138;2022-11-20T20:53:48;16.30;90.20
34008;DHT22;41085;51.594;7.138;2022-11-20T20:57:49;16.30;90.20
34008;DHT22;41085;51.594;7.138;2022-11-20T21:01:49;17.60;90.50
34008;DHT22;41085;51.594;7.138;2022-11-20T21:05:55;17.20;90.40
34008;DHT22;41085;51.594;7.138;2022-11-20T21:09:56;17.90;90.50
34008;DHT22;41085;51.594;7.138;2022-11-20T21:13:57;16.40;84.70
34008;DHT22;41085;51.594;7.138;2022-11-20T21:17:57;14.80;86.10
34008;DHT22;41085;51.594;7.138;2022-11-20T21:21:58;15.10;89.40
34008;DHT22;41085;51.594;7.138;2022-11-20T21:26:03;15.90;90.20
34008;DHT22;41085;51.594;7.138;2022-11-20T21:30:05;15.50;90.20
34008;DHT22;41085;51.594;7.138;2022-11-20T21:34:05;15.70;90.20
34008;DHT22;41085;51.594;7.138;2022-11-20T21:38:09;16.00;90.20
34008;DHT22;41085;51.594;7.138;2022-11-20T21:42:10;15.90;90.40
34008;DHT22;41085;51.594;7.138;2022-11-20T21:46:13;15.60;90.40
34008;DHT22;41085;51.594;7.138;2022-11-20T21:50:14;16.30;90.60
34008;DHT22;41085;51.594;7.138;2022-11-20T21:54:14;16.00;90.70
34008;DHT22;41085;51.594;7.138;2022-11-20T21:58:16;15.60;90.60
34008;DHT22;41085;51.594;7.138;2022-11-20T22:02:17;15.50;90.60
34008;DHT22;41085;51.594;7.138;2022-11-20T22:06:19;16.40;90.90
34008;DHT22;41085;51.594;7.138;2022-11-20T22:10:20;17.80;91.30
34008;DHT22;41085;51.594;7.138;2022-11-20T22:14:20;15.40;90.60
34008;DHT22;41085;51.594;7.138;2022-11-20T22:18:21;17.80;91.40
34008;DHT22;41085;51.594;7.138;2022-11-20T22:22:21;16.80;91.20
34008;DHT22;41085;51.594;7.138;2022-11-20T22:26:24;15.50;90.70
34008;DHT22;41085;51.594;7.138;2022-11-20T22:30:25;15.40;90.60
34008;DHT22;41085;51.594;7.138;2022-11-20T22:34:26;16.20;90.90
34008;DHT22;41085;51.594;7.138;2022-11-20T22:38:27;16.20;91.00
34008;DHT22;41085;51.594;7.138;2022-11-20T22:42:27;18.30;91.60
34008;DHT22;41085;51.594;7.138;2022-11-20T22:46:30;18.20;91.60
34008;DHT22;41085;51.594;7.138;2022-11-20T22:50:31;15.70;91.00
34008;DHT22;41085;51.594;7.138;2022-11-20T22:54:31;16.50;91.30
34008;DHT22;41085;51.594;7.138;2022-11-20T22:58:33;15.70;91.10
34008;DHT22;41085;51.594;7.138;2022-11-20T23:02:34;15.70;91.00
34008;DHT22;41085;51.594;7.138;2022-11-20T23:06:34;15.90;91.10
34008;DHT22;41085;51.594;7.138;2022-11-20T23:10:35;16.50;91.20
34008;DHT22;41085;51.594;7.138;2022-11-20T23:14:35;16.50;91.20
34008;DHT22;41085;51.594;7.138;2022-11-20T23:18:36;17.00;91.50
34008;DHT22;41085;51.594;7.138;2022-11-20T23:22:37;15.90;91.00
34008;DHT22;41085;51.594;7.138;2022-11-20T23:26:39;16.90;91.40
34008;DHT22;41085;51.594;7.138;2022-11-20T23:30:40;16.00;90.90
34008;DHT22;41085;51.594;7.138;2022-11-20T23:34:40;16.70;91.20
34008;DHT22;41085;51.594;7.138;2022-11-20T23:38:41;16.90;91.20
34008;DHT22;41085;51.594;7.138;2022-11-20T23:42:41;18.80;91.60
34008;DHT22;41085;51.594;7.138;2022-11-20T23:47:02;18.50;91.50
34008;DHT22;41085;51.594;7.138;2022-11-20T23:51:04;16.10;90.80
34008;DHT22;41085;51.594;7.138;2022-11-20T23:55:04;16.50;90.80
34008;DHT22;41085;51.594;7.138;2022-11-20T23:59:06;16.30;90.80
